createdAt,value
2019-04-30T00:00:30.384Z,17.62
2019-04-30T00:03:06.627Z,17.55
2019-04-30T00:05:35.346Z,18.45
2019-04-30T00:08:05.866Z,18.62
2019-04-30T00:10:39.637Z,18.48
2019-04-30T00:13:06.134Z,17.92
2019-04-30T00:15:35.731Z,18.35
2019-04-30T00:18:05.492Z,19.20
2019-04-30T00:20:38.472Z,18.48
2019-04-30T00:23:05.666Z,18.92
2019-04-30T00:25:35.174Z,20.17
2019-04-30T00:28:08.483Z,18.62
2019-04-30T00:30:39.242Z,18.48
2019-04-30T00:33:06.393Z,19.40
2019-04-30T00:35:35.676Z,19.27
2019-04-30T00:38:05.129Z,18.27
2019-04-30T00:40:35.156Z,20.12
2019-04-30T00:43:08.909Z,19.70
2019-04-30T00:45:35.484Z,18.62
2019-04-30T00:48:05.984Z,21.93
2019-04-30T00:50:37.251Z,19.50
2019-04-30T00:53:12.246Z,19.95
2019-04-30T00:55:38.139Z,19.65
2019-04-30T00:58:07.291Z,19.57
2019-04-30T01:00:45.487Z,21.35
2019-04-30T01:03:19.809Z,20.43
2019-04-30T01:05:48.843Z,20.05
2019-04-30T01:08:21.119Z,21.17
2019-04-30T01:10:48.743Z,19.92
2019-04-30T01:13:19.261Z,20.30
2019-04-30T01:15:52.284Z,18.70
2019-04-30T01:18:19.351Z,19.75
2019-04-30T01:20:48.716Z,19.95
2019-04-30T01:23:19.487Z,19.87
2019-04-30T01:25:51.366Z,19.62
2019-04-30T01:28:22.849Z,19.25
2019-04-30T01:30:53.860Z,20.10
2019-04-30T01:33:20.709Z,20.60
2019-04-30T01:35:49.862Z,20.57
2019-04-30T01:38:18.988Z,20.43
2019-04-30T01:40:51.013Z,20.80
2019-04-30T01:43:23.543Z,20.20
2019-04-30T01:45:49.268Z,19.75
2019-04-30T01:48:19.411Z,20.92
2019-04-30T01:50:48.893Z,20.52
2019-04-30T01:53:18.643Z,21.02
2019-04-30T01:56:05.093Z,21.77
2019-04-30T01:58:42.005Z,21.07
2019-04-30T02:01:16.135Z,21.00
2019-04-30T02:03:45.068Z,20.70
2019-04-30T02:06:14.130Z,20.88
2019-04-30T02:08:43.058Z,21.60
2019-04-30T02:11:12.130Z,21.20
2019-04-30T02:13:41.115Z,20.77
2019-04-30T02:16:10.058Z,21.52
2019-04-30T02:18:39.381Z,20.65
2019-04-30T02:21:08.974Z,20.88
2019-04-30T02:23:39.334Z,20.60
2019-04-30T02:26:08.619Z,19.75
2019-04-30T02:28:39.315Z,21.00
2019-04-30T02:31:09.321Z,22.15
2019-04-30T02:33:40.552Z,20.23
2019-04-30T02:36:31.556Z,20.37
2019-04-30T02:39:02.736Z,20.10
2019-04-30T02:41:31.012Z,20.75
2019-04-30T02:44:00.306Z,20.82
2019-04-30T02:46:32.304Z,21.60
2019-04-30T02:49:00.037Z,19.92
2019-04-30T02:51:30.033Z,21.33
2019-04-30T02:54:13.414Z,20.75
2019-04-30T02:56:44.329Z,21.12
2019-04-30T02:59:13.393Z,21.62
2019-04-30T03:01:42.421Z,20.27
2019-04-30T03:04:11.503Z,20.48
2019-04-30T03:06:40.710Z,20.05
2019-04-30T03:09:10.633Z,19.55
2019-04-30T03:11:40.685Z,20.77
2019-04-30T03:14:10.929Z,19.80
2019-04-30T03:16:52.748Z,19.32
2019-04-30T03:19:29.691Z,19.70
2019-04-30T03:22:02.411Z,18.30
2019-04-30T03:24:31.217Z,20.00
2019-04-30T03:27:00.112Z,19.85
2019-04-30T03:29:30.188Z,19.75
2019-04-30T03:32:02.606Z,19.75
2019-04-30T03:34:32.497Z,19.92
2019-04-30T03:37:02.083Z,21.00
2019-04-30T03:39:33.770Z,19.48
2019-04-30T03:42:02.056Z,19.17
2019-04-30T03:44:32.437Z,19.85
2019-04-30T03:47:01.718Z,19.70
2019-04-30T03:49:30.700Z,20.10
2019-04-30T03:52:00.086Z,19.25
2019-04-30T03:54:29.523Z,20.45
2019-04-30T03:57:00.906Z,18.73
2019-04-30T03:59:30.464Z,19.10
2019-04-30T04:02:24.294Z,20.83
2019-04-30T04:05:00.907Z,19.30
2019-04-30T04:07:53.137Z,20.15
2019-04-30T04:10:34.207Z,19.70
2019-04-30T04:13:03.170Z,19.80
2019-04-30T04:15:32.301Z,20.00
2019-04-30T04:18:01.320Z,18.48
2019-04-30T04:20:30.320Z,20.12
2019-04-30T04:22:59.853Z,19.37
2019-04-30T04:25:29.941Z,20.12
2019-04-30T04:28:00.431Z,21.17
2019-04-30T04:30:30.120Z,21.02
2019-04-30T04:32:59.947Z,20.30
2019-04-30T04:35:29.924Z,19.80
2019-04-30T04:38:00.428Z,20.12
2019-04-30T04:40:30.357Z,20.05
2019-04-30T04:43:00.329Z,20.62
2019-04-30T04:45:30.573Z,19.52
2019-04-30T04:48:00.278Z,19.70
2019-04-30T04:50:30.345Z,20.75
2019-04-30T04:53:20.005Z,20.25
2019-04-30T04:55:49.960Z,20.52
2019-04-30T04:58:21.467Z,19.65
2019-04-30T05:00:49.886Z,19.55
2019-04-30T05:03:36.489Z,19.73
2019-04-30T05:06:05.557Z,19.75
2019-04-30T05:08:34.682Z,19.92
2019-04-30T05:11:03.587Z,21.12
2019-04-30T05:13:34.709Z,22.15
2019-04-30T05:16:03.269Z,21.55
2019-04-30T05:18:32.225Z,21.93
2019-04-30T05:21:01.104Z,19.57
2019-04-30T05:23:30.019Z,20.37
2019-04-30T05:26:01.693Z,18.55
2019-04-30T05:28:30.683Z,17.35
2019-04-30T05:30:59.739Z,18.50
2019-04-30T05:33:28.769Z,21.87
2019-04-30T05:35:59.442Z,18.98
2019-04-30T05:38:31.098Z,21.23
2019-04-30T05:41:19.322Z,19.02
2019-04-30T05:43:48.843Z,19.52
2019-04-30T05:46:19.657Z,18.90
2019-04-30T05:48:49.590Z,20.10
2019-04-30T05:51:21.157Z,19.27
2019-04-30T05:53:49.475Z,20.48
2019-04-30T05:56:20.164Z,19.90
2019-04-30T05:58:49.541Z,19.90
2019-04-30T06:01:19.633Z,20.83
2019-04-30T06:03:49.376Z,20.15
2019-04-30T06:06:19.562Z,23.05
2019-04-30T06:09:04.649Z,21.97
2019-04-30T06:11:43.515Z,22.55
2019-04-30T06:14:23.037Z,21.42
2019-04-30T06:17:07.042Z,20.80
2019-04-30T06:19:36.269Z,20.65
2019-04-30T06:22:08.072Z,22.00
2019-04-30T06:24:36.506Z,18.85
2019-04-30T06:27:05.552Z,19.37
2019-04-30T06:29:34.609Z,18.67
2019-04-30T06:32:03.467Z,18.98
2019-04-30T06:34:32.582Z,19.10
2019-04-30T06:37:01.530Z,18.25
2019-04-30T06:39:30.538Z,18.15
2019-04-30T06:42:06.496Z,17.65
2019-04-30T06:44:37.499Z,17.57
2019-04-30T06:47:01.750Z,18.37
2019-04-30T06:49:30.690Z,19.67
2019-04-30T06:51:59.612Z,18.92
2019-04-30T06:54:28.804Z,18.80
2019-04-30T06:56:59.567Z,21.15
2019-04-30T06:59:29.936Z,19.92
2019-04-30T07:01:59.067Z,21.07
2019-04-30T07:04:29.319Z,20.35
2019-04-30T07:09:58.193Z,21.75
2019-04-30T07:12:45.431Z,26.23
2019-04-30T07:15:14.445Z,27.82
2019-04-30T07:17:43.468Z,27.05
2019-04-30T07:20:12.437Z,26.68
2019-04-30T07:22:49.808Z,25.50
2019-04-30T07:25:11.940Z,21.93
2019-04-30T07:27:40.870Z,22.52
2019-04-30T07:30:10.182Z,23.70
2019-04-30T07:32:39.190Z,23.92
2019-04-30T07:35:09.571Z,24.18
2019-04-30T07:37:39.280Z,25.45
2019-04-30T07:40:09.274Z,24.37
2019-04-30T07:42:44.693Z,24.80
2019-04-30T07:45:09.683Z,22.65
2019-04-30T07:47:39.688Z,22.62
2019-04-30T07:50:10.747Z,22.27
2019-04-30T07:52:57.735Z,21.57
2019-04-30T07:55:09.950Z,21.50
2019-04-30T07:57:40.393Z,22.77
2019-04-30T08:00:09.902Z,22.65
2019-04-30T08:02:43.873Z,20.87
2019-04-30T08:05:21.945Z,20.12
2019-04-30T08:07:51.026Z,20.95
2019-04-30T08:10:20.009Z,19.87
2019-04-30T08:12:50.508Z,19.23
2019-04-30T08:15:19.997Z,19.67
2019-04-30T08:18:01.812Z,19.37
2019-04-30T08:20:19.961Z,18.65
2019-04-30T08:22:49.512Z,18.48
2019-04-30T08:25:21.921Z,18.17
2019-04-30T08:27:50.183Z,17.77
2019-04-30T08:30:26.169Z,17.15
2019-04-30T08:32:50.074Z,17.57
2019-04-30T08:35:19.733Z,17.53
2019-04-30T08:37:49.823Z,17.85
2019-04-30T08:40:19.528Z,16.87
2019-04-30T08:42:49.537Z,17.73
2019-04-30T08:45:19.658Z,16.67
2019-04-30T08:47:49.468Z,17.60
2019-04-30T08:50:20.312Z,17.30
2019-04-30T08:52:49.980Z,16.40
2019-04-30T08:55:22.480Z,16.82
2019-04-30T08:57:50.697Z,18.67
2019-04-30T09:00:19.763Z,17.90
2019-04-30T09:02:49.301Z,17.12
2019-04-30T09:05:24.956Z,16.75
2019-04-30T09:07:53.971Z,21.80
2019-04-30T09:10:23.380Z,22.02
2019-04-30T09:12:52.269Z,19.63
2019-04-30T09:15:21.426Z,24.43
2019-04-30T09:18:00.764Z,25.95
2019-04-30T09:20:21.621Z,25.97
2019-04-30T09:22:50.484Z,26.55
2019-04-30T09:25:19.599Z,26.37
2019-04-30T09:27:48.876Z,29.00
2019-04-30T09:30:18.806Z,28.73
2019-04-30T09:32:49.963Z,28.52
2019-04-30T09:35:19.861Z,28.52
2019-04-30T09:37:58.797Z,27.70
2019-04-30T09:40:21.200Z,27.15
2019-04-30T09:42:50.170Z,26.33
2019-04-30T09:45:19.494Z,27.10
2019-04-30T09:47:50.400Z,25.90
2019-04-30T09:50:19.064Z,24.27
2019-04-30T09:52:49.678Z,25.37
2019-04-30T09:55:19.339Z,30.57
2019-04-30T09:57:48.914Z,32.80
2019-04-30T10:00:19.379Z,31.77
2019-04-30T10:02:48.944Z,30.90
2019-04-30T10:05:20.456Z,30.33
2019-04-30T10:07:49.605Z,31.68
2019-04-30T10:10:20.830Z,28.92
2019-04-30T10:12:49.663Z,29.75
2019-04-30T10:15:31.908Z,29.05
2019-04-30T10:18:00.717Z,30.02
2019-04-30T10:20:40.601Z,28.05
2019-04-30T10:23:09.652Z,28.35
2019-04-30T10:25:38.752Z,28.05
2019-04-30T10:28:09.779Z,28.23
2019-04-30T10:30:38.659Z,27.75
2019-04-30T10:33:09.828Z,28.98
2019-04-30T10:35:38.685Z,25.23
2019-04-30T10:38:09.677Z,24.85
2019-04-30T10:40:39.108Z,25.05
2019-04-30T10:43:08.857Z,23.47
2019-04-30T10:45:38.832Z,24.23
2019-04-30T10:48:07.820Z,24.20
2019-04-30T10:50:36.818Z,26.45
2019-04-30T10:53:05.715Z,29.00
2019-04-30T10:55:34.800Z,24.27
2019-04-30T10:58:03.745Z,30.62
2019-04-30T11:00:40.230Z,34.78
2019-04-30T11:03:19.544Z,31.00
2019-04-30T11:05:41.245Z,29.12
2019-04-30T11:10:39.888Z,27.32
2019-04-30T11:13:08.915Z,28.12
2019-04-30T11:15:39.452Z,26.85
2019-04-30T11:18:08.864Z,27.50
2019-04-30T11:20:39.746Z,27.45
2019-04-30T11:23:14.641Z,25.65
2019-04-30T11:25:41.215Z,23.87
2019-04-30T11:28:10.768Z,24.85
2019-04-30T11:30:40.429Z,25.02
2019-04-30T11:33:09.930Z,24.87
2019-04-30T11:35:39.503Z,23.83
2019-04-30T11:38:08.577Z,46.53
2019-04-30T11:40:40.006Z,48.50
2019-04-30T11:43:08.265Z,36.35
2019-04-30T11:46:44.158Z,36.63
2019-04-30T11:49:13.166Z,36.85
2019-04-30T11:51:42.157Z,36.75
2019-04-30T11:54:11.134Z,35.45
2019-04-30T11:56:40.013Z,35.28
2019-04-30T11:59:08.899Z,34.60
2019-04-30T12:01:38.110Z,34.60
2019-04-30T12:04:07.109Z,33.50
2019-04-30T12:06:36.162Z,34.38
2019-04-30T12:09:35.932Z,31.50
2019-04-30T12:12:04.888Z,32.35
2019-04-30T12:14:33.982Z,29.15
2019-04-30T12:17:02.899Z,29.18
2019-04-30T12:19:31.771Z,29.40
2019-04-30T12:22:00.779Z,28.12
2019-04-30T12:24:30.444Z,28.83
2019-04-30T12:26:59.616Z,28.15
2019-04-30T12:29:29.234Z,28.07
2019-04-30T12:31:58.313Z,25.82
2019-04-30T12:34:27.237Z,26.57
2019-04-30T12:36:56.541Z,25.17
2019-04-30T12:39:25.347Z,24.02
2019-04-30T12:41:54.291Z,25.25
2019-04-30T12:44:24.376Z,24.20
2019-04-30T12:46:53.362Z,24.23
2019-04-30T12:49:22.359Z,22.82
2019-04-30T12:52:14.851Z,23.38
2019-04-30T12:54:48.642Z,22.07
2019-04-30T12:57:24.286Z,24.00
2019-04-30T12:59:53.086Z,22.95
2019-04-30T13:02:22.107Z,22.32
2019-04-30T13:04:51.128Z,22.32
2019-04-30T13:07:21.327Z,21.10
2019-04-30T13:09:51.414Z,21.57
2019-04-30T13:12:21.367Z,21.77
2019-04-30T13:14:54.378Z,20.32
2019-04-30T13:17:21.195Z,20.85
2019-04-30T13:19:50.247Z,20.62
2019-04-30T13:22:19.523Z,20.02
2019-04-30T13:24:49.907Z,18.55
2019-04-30T13:27:19.592Z,19.55
2019-04-30T13:30:01.816Z,19.12
2019-04-30T13:32:33.565Z,19.07
2019-04-30T13:35:02.503Z,19.52
2019-04-30T13:37:49.591Z,18.77
2019-04-30T13:40:34.683Z,17.45
2019-04-30T13:43:03.953Z,17.67
2019-04-30T13:45:33.637Z,17.65
2019-04-30T13:48:02.677Z,17.73
2019-04-30T13:50:31.613Z,17.55
2019-04-30T13:53:00.617Z,16.55
2019-04-30T13:55:42.493Z,16.75
2019-04-30T13:58:00.426Z,16.70
2019-04-30T14:00:30.715Z,15.35
2019-04-30T14:05:49.187Z,16.20
2019-04-30T14:08:33.801Z,15.90
2019-04-30T14:11:02.717Z,16.75
2019-04-30T14:13:39.780Z,16.12
2019-04-30T14:16:08.726Z,15.40
2019-04-30T14:18:39.057Z,15.93
2019-04-30T14:21:09.350Z,15.50
2019-04-30T14:26:09.352Z,15.60
2019-04-30T14:28:39.157Z,15.03
2019-04-30T14:31:08.198Z,14.50
2019-04-30T14:33:37.159Z,14.30
2019-04-30T14:36:05.973Z,14.25
2019-04-30T14:38:34.880Z,14.10
2019-04-30T14:41:04.378Z,14.73
2019-04-30T14:43:42.904Z,14.73
2019-04-30T14:46:30.937Z,13.65
2019-04-30T14:49:26.152Z,13.70
2019-04-30T14:51:55.944Z,13.45
2019-04-30T14:54:32.300Z,13.58
2019-04-30T14:57:18.455Z,13.18
2019-04-30T15:00:08.657Z,13.38
2019-04-30T15:02:41.032Z,14.18
2019-04-30T15:05:10.491Z,12.70
2019-04-30T15:07:39.840Z,11.60
2019-04-30T15:10:09.075Z,13.10
2019-04-30T15:12:38.041Z,12.78
2019-04-30T15:15:09.052Z,11.78
2019-04-30T15:17:39.200Z,11.38
2019-04-30T15:20:08.858Z,12.50
2019-04-30T15:22:39.975Z,11.80
2019-04-30T15:25:09.029Z,11.68
2019-04-30T15:27:45.159Z,11.57
2019-04-30T15:30:08.945Z,11.43
2019-04-30T15:32:40.685Z,11.63
2019-04-30T15:35:09.627Z,12.68
2019-04-30T15:37:40.293Z,11.53
2019-04-30T15:40:09.256Z,12.00
2019-04-30T15:42:41.693Z,11.43
2019-04-30T15:45:10.718Z,10.25
2019-04-30T15:47:39.680Z,11.38
2019-04-30T15:50:10.496Z,11.22
2019-04-30T15:52:39.306Z,11.15
2019-04-30T15:55:09.207Z,11.28
2019-04-30T15:57:59.275Z,10.88
2019-04-30T16:00:31.385Z,10.60
2019-04-30T16:05:54.562Z,10.23
2019-04-30T16:08:33.638Z,10.40
2019-04-30T16:11:11.814Z,10.58
2019-04-30T16:14:18.669Z,9.78
2019-04-30T16:17:00.069Z,10.63
2019-04-30T16:19:29.159Z,10.93
2019-04-30T16:21:58.308Z,10.53
2019-04-30T16:24:28.739Z,10.38
2019-04-30T16:26:59.369Z,9.93
2019-04-30T16:29:28.654Z,10.75
2019-04-30T16:31:59.169Z,9.78
2019-04-30T16:34:30.167Z,10.08
2019-04-30T16:36:59.123Z,10.43
2019-04-30T16:39:28.885Z,10.13
2019-04-30T16:41:59.191Z,10.60
2019-04-30T16:46:56.292Z,10.15
2019-04-30T16:49:25.315Z,10.48
2019-04-30T16:51:54.569Z,9.68
2019-04-30T16:54:25.200Z,10.23
2019-04-30T16:57:03.421Z,9.85
2019-04-30T16:59:33.825Z,10.72
2019-04-30T17:02:02.724Z,10.50
2019-04-30T17:04:40.914Z,10.00
2019-04-30T17:07:16.166Z,9.88
2019-04-30T17:10:04.137Z,10.23
2019-04-30T17:12:51.464Z,10.00
2019-04-30T17:15:23.567Z,10.20
2019-04-30T17:17:52.711Z,10.15
2019-04-30T17:20:21.641Z,10.00
2019-04-30T17:22:50.719Z,10.25
2019-04-30T17:25:19.928Z,8.98
2019-04-30T17:27:48.756Z,10.28
2019-04-30T17:30:19.317Z,10.00
2019-04-30T17:32:49.930Z,9.73
2019-04-30T17:35:19.289Z,9.75
2019-04-30T17:37:48.211Z,9.93
2019-04-30T17:40:19.120Z,10.00
2019-04-30T17:42:47.737Z,9.98
2019-04-30T17:45:16.811Z,10.15
2019-04-30T17:47:45.854Z,10.10
2019-04-30T17:50:14.818Z,9.58
2019-04-30T17:52:43.859Z,10.25
2019-04-30T17:55:12.826Z,9.35
2019-04-30T17:57:41.913Z,9.48
2019-04-30T18:00:19.187Z,10.30
2019-04-30T18:02:43.326Z,9.80
2019-04-30T18:05:12.352Z,9.65
2019-04-30T18:07:41.365Z,9.75
2019-04-30T18:10:12.180Z,9.43
2019-04-30T18:12:41.028Z,9.13
2019-04-30T18:15:14.110Z,9.00
2019-04-30T18:17:44.742Z,8.83
2019-04-30T18:20:29.228Z,10.00
2019-04-30T18:23:05.757Z,8.93
2019-04-30T18:25:42.028Z,9.30
2019-04-30T18:28:11.003Z,9.98
2019-04-30T18:30:41.168Z,10.00
2019-04-30T18:33:10.087Z,9.75
2019-04-30T18:35:39.016Z,10.25
2019-04-30T18:38:09.830Z,10.58
2019-04-30T18:40:39.772Z,10.15
2019-04-30T18:43:09.110Z,10.13
2019-04-30T18:45:39.594Z,10.93
2019-04-30T18:48:09.690Z,9.55
2019-04-30T18:53:13.149Z,9.75
2019-04-30T18:55:42.117Z,10.48
2019-04-30T18:58:11.122Z,10.23
2019-04-30T19:00:41.956Z,9.63
2019-04-30T19:03:11.211Z,8.68
2019-04-30T19:05:41.666Z,10.78
2019-04-30T19:08:16.875Z,9.68
2019-04-30T19:11:03.651Z,10.20
2019-04-30T19:13:42.676Z,10.48
2019-04-30T19:16:25.667Z,9.95
2019-04-30T19:19:01.034Z,10.95
2019-04-30T19:21:30.350Z,11.20
2019-04-30T19:23:59.270Z,9.48
2019-04-30T19:26:29.309Z,11.08
2019-04-30T19:31:27.067Z,10.85
2019-04-30T19:33:55.997Z,11.03
2019-04-30T19:36:35.033Z,9.88
2019-04-30T19:38:55.748Z,9.75
2019-04-30T19:41:24.858Z,9.98
2019-04-30T19:43:53.882Z,11.28
2019-04-30T19:46:22.750Z,10.95
2019-04-30T19:48:51.755Z,10.28
2019-04-30T19:51:20.795Z,11.73
2019-04-30T19:53:49.754Z,11.53
2019-04-30T19:56:20.593Z,10.15
2019-04-30T19:59:01.581Z,10.80
2019-04-30T20:01:20.120Z,11.00
2019-04-30T20:03:49.388Z,10.75
2019-04-30T20:06:19.150Z,9.88
2019-04-30T20:08:48.285Z,11.70
2019-04-30T20:11:17.393Z,11.35
2019-04-30T20:13:46.303Z,11.25
2019-04-30T20:16:15.297Z,12.25
2019-04-30T20:18:44.565Z,11.10
2019-04-30T20:21:26.237Z,11.20
2019-04-30T20:23:48.233Z,11.30
2019-04-30T20:26:17.233Z,11.38
2019-04-30T20:28:46.155Z,10.00
2019-04-30T20:31:15.117Z,11.08
2019-04-30T20:33:44.032Z,10.08
2019-04-30T20:36:12.975Z,11.35
2019-04-30T20:39:00.994Z,11.40
2019-04-30T20:41:30.874Z,11.65
2019-04-30T20:43:59.885Z,10.93
2019-04-30T20:46:32.617Z,9.93
2019-04-30T20:48:59.558Z,11.12
2019-04-30T20:51:29.056Z,10.03
2019-04-30T20:53:59.198Z,11.93
2019-04-30T20:56:29.119Z,10.72
2019-04-30T20:59:04.140Z,11.38
2019-04-30T21:01:29.643Z,10.53
2019-04-30T21:03:58.566Z,10.43
2019-04-30T21:06:29.744Z,10.10
2019-04-30T21:08:58.625Z,10.60
2019-04-30T21:11:27.582Z,9.70
2019-04-30T21:13:56.488Z,10.72
2019-04-30T21:16:25.581Z,10.95
2019-04-30T21:18:54.516Z,11.15
2019-04-30T21:21:23.528Z,11.68
2019-04-30T21:23:52.953Z,10.28
2019-04-30T21:26:22.188Z,11.67
2019-04-30T21:28:51.353Z,11.48
2019-04-30T21:31:41.956Z,9.53
2019-04-30T21:34:19.674Z,10.68
2019-04-30T21:36:49.642Z,9.23
2019-04-30T21:39:20.144Z,10.72
2019-04-30T21:41:49.519Z,10.63
2019-04-30T21:44:18.493Z,11.55
2019-04-30T21:46:47.389Z,10.40
2019-04-30T21:49:16.278Z,11.40
2019-04-30T21:51:45.061Z,11.70
2019-04-30T21:54:14.155Z,11.38
2019-04-30T21:56:43.017Z,11.30
2019-04-30T21:59:23.722Z,11.78
2019-04-30T22:01:43.120Z,9.95
2019-04-30T22:04:12.090Z,10.30
2019-04-30T22:06:41.090Z,10.63
2019-04-30T22:09:10.475Z,10.20
2019-04-30T22:11:39.609Z,10.90
2019-04-30T22:14:08.793Z,9.78
2019-04-30T22:16:39.802Z,12.20
2019-04-30T22:19:09.168Z,10.13
2019-04-30T22:21:39.645Z,10.68
2019-04-30T22:24:08.809Z,9.23
2019-04-30T22:26:37.737Z,10.95
2019-04-30T22:29:06.950Z,10.78
2019-04-30T22:31:35.886Z,10.65
2019-04-30T22:34:04.919Z,11.10
2019-04-30T22:36:51.623Z,11.80
2019-04-30T22:39:39.410Z,11.20
2019-04-30T22:42:40.296Z,10.50
2019-04-30T22:45:31.964Z,12.07
2019-04-30T22:48:00.852Z,12.03
2019-04-30T22:50:29.832Z,11.25
2019-04-30T22:52:58.796Z,11.03
2019-04-30T22:55:27.771Z,11.18
2019-04-30T22:57:56.901Z,12.10
2019-04-30T23:00:45.639Z,11.55
2019-04-30T23:03:30.468Z,10.70
2019-04-30T23:05:59.657Z,11.53
2019-04-30T23:08:28.446Z,10.45
2019-04-30T23:10:57.422Z,10.10
2019-04-30T23:13:26.431Z,10.30
2019-04-30T23:15:55.459Z,10.25
2019-04-30T23:18:24.521Z,10.72
2019-04-30T23:20:53.356Z,10.43
2019-04-30T23:23:22.840Z,10.40
2019-04-30T23:25:51.957Z,10.48
2019-04-30T23:28:20.852Z,10.35
2019-04-30T23:30:49.794Z,10.63
2019-04-30T23:33:18.721Z,11.15
2019-04-30T23:35:47.637Z,11.75
2019-04-30T23:38:16.656Z,9.80
2019-04-30T23:40:50.230Z,11.38
2019-04-30T23:43:19.119Z,10.15
2019-04-30T23:45:48.248Z,11.18
2019-04-30T23:48:17.296Z,10.28
2019-04-30T23:50:46.541Z,10.60
2019-04-30T23:53:15.614Z,10.70
2019-04-30T23:55:44.569Z,10.08
2019-04-30T23:58:13.608Z,10.50
